Latest Weather Observations for Moranbah Airport

IDQ60801

Issued at 5:02 pm EST Saturday 4 July 2015 (issued every 30 minutes, with the page automatically refreshed every 10 minutes)

About weather observations | Map of weather stations | Latest weather observations for QLD | Other Formats
Station Details ID: 034035 Name: MORANBAH AIRPORT Lat: -22.06 Lon: 148.08 Height: 232.2 m
Data from the previous 72 hours. | See also: Recent months at Moranbah Airport
Date/Time
EST
Temp
°C
App
Temp
°C
Dew
Point
Rel
Hum
%
Delta-T
°C
Wind Press
QNH
hPa
Press
MSL
hPa
Rain
since 9 am
mm
Dir
 
Spd
km/h
Gust
km/h
Spd
kts
Gust
kts
04/05:00pm 21.3 17.0 9.2 46 6.5 E 22 28 12 15 1018.7 1018.3 0.0
04/04:30pm 22.4 19.5 9.6 44 7.0 E 15 24 8 13 1018.6 1018.2 0.0
04/04:00pm 21.6 17.5 8.8 44 6.8 ENE 20 32 11 17 1018.4 1018.0 0.0
04/03:30pm 21.9 17.7 8.4 42 7.2 E 20 28 11 15 1018.6 1018.2 0.0
04/03:00pm 22.9 19.2 9.3 42 7.4 E 19 28 10 15 1018.6 1018.2 0.0
04/02:30pm 22.5 18.0 8.6 41 7.5 E 22 33 12 18 1018.8 1018.4 0.0
04/02:00pm 23.8 20.0 9.0 39 8.0 E 19 32 10 17 1018.9 1018.6 0.0
04/01:30pm 22.7 18.5 8.4 40 7.7 ESE 20 30 11 16 1019.4 1019.1 0.0
04/01:00pm 22.5 18.6 8.6 41 7.4 ESE 19 33 10 18 1019.8 1019.5 0.0
04/12:30pm 21.2 17.0 7.4 41 7.2 E 19 28 10 15 1020.6 1020.3 0.0
04/12:00pm 21.6 17.5 8.5 43 7.0 E 20 30 11 16 1021.1 1020.8 0.0
04/11:30am 20.3 15.8 6.3 40 7.1 ESE 19 28 10 15 1021.7 1021.3 0.0
04/11:00am 20.0 14.7 6.7 42 6.8 ESE 24 32 13 17 1021.8 1021.4 0.0
04/10:30am 19.0 12.7 5.5 41 6.7 ESE 28 37 15 20 1021.9 1021.5 0.0
04/10:00am 18.1 11.6 4.7 41 6.5 ESE 28 39 15 21 1021.9 1021.5 0.0
04/09:30am 16.8 9.5 4.5 44 5.9 ESE 32 39 17 21 1021.9 1021.5 0.0
04/09:00am 15.3 9.8 3.8 46 5.3 ESE 22 28 12 15 1022.0 1021.6 0.0
04/08:30am 13.3 8.0 2.8 49 4.7 SE 20 26 11 14 1021.9 1021.5 0.0
04/08:00am 11.7 6.9 2.5 53 4.0 SE 17 20 9 11 1021.7 1021.3 0.0
04/07:30am 9.6 5.2 2.7 62 3.0 SE 15 17 8 9 1021.6 1021.2 0.0
04/07:00am 6.1 2.8 2.2 76 1.6 SE 9 13 5 7 1021.5 1021.1 0.0
04/06:30am 4.1 0.8 -0.1 74 1.6 NE 7 9 4 5 1021.6 1021.2 0.0
04/06:00am 4.6 1.4 -0.4 70 1.9 SSE 6 7 3 4 1020.9 1020.6 0.0
04/05:30am 5.8 1.7 2.1 77 1.5 SE 13 15 7 8 1020.9 1020.6 0.0
04/05:00am 4.3 0.6 -0.3 72 1.7 SE 9 11 5 6 1021.0 1020.7 0.0
04/04:30am 5.2 2.2 2.2 81 1.2 SE 7 9 4 5 1021.1 1020.8 0.0
04/04:00am 4.1 2.1 -0.1 74 1.6 CALM 0 0 0 0 1021.2 1020.9 0.0
04/03:30am 4.3 2.3 -0.3 72 1.7 CALM 0 0 0 0 1021.1 1020.8 0.0
04/03:00am 5.4 3.5 0.4 70 2.0 CALM 0 0 0 0 1021.1 1020.8 0.0
04/02:30am 7.1 2.9 1.6 68 2.3 SE 13 15 7 8 1021.2 1020.9 0.0
04/02:00am 6.3 2.3 0.4 66 2.3 SE 11 13 6 7 1021.2 1020.9 0.0
04/01:30am 6.9 2.5 0.6 64 2.5 SE 13 15 7 8 1021.5 1021.1 0.0
04/01:00am 7.7 3.0 0.7 61 2.8 SE 15 17 8 9 1021.8 1021.4 0.0
04/12:30am 8.5 3.4 0.7 58 3.2 SE 17 19 9 10 1021.8 1021.4 0.0
04/12:00am 8.8 4.1 1.2 59 3.1 SSE 15 17 8 9 1021.9 1021.5 0.0
 
Date/Time
EST
Temp
°C
App
Temp
°C
Dew
Point
Rel
Hum
%
Delta-T
°C
Wind Press
QNH
hPa
Press
MSL
hPa
Rain
since 9 am
mm
Dir
 
Spd
km/h
Gust
km/h
Spd
kts
Gust
kts
03/11:30pm 7.9 3.9 0.4 59 3.0 SE 11 15 6 8 1022.2 1021.8 0.0
03/11:00pm 8.2 3.7 -0.3 55 3.4 SE 13 15 7 8 1022.3 1021.9 0.0
03/10:30pm 9.4 5.3 0.1 52 3.8 SE 11 13 6 7 1022.4 1022.0 0.0
03/10:00pm 9.6 5.1 -0.6 49 4.1 SE 13 17 7 9 1022.2 1021.8 0.0
03/09:30pm 10.5 5.2 -0.9 45 4.6 SE 17 19 9 10 1022.0 1021.6 0.0
03/09:00pm 11.0 6.0 -1.1 43 4.8 SE 15 20 8 11 1021.7 1021.3 0.0
03/08:30pm 11.1 5.7 -1.6 41 5.0 SE 17 17 9 9 1021.5 1021.1 0.0
03/08:00pm 13.5 8.4 -2.0 34 6.2 ESE 15 17 8 9 1021.1 1020.8 0.0
03/07:30pm 15.1 9.7 -1.5 32 6.9 ESE 17 20 9 11 1020.7 1020.4 0.0
03/07:00pm 12.8 8.1 -1.9 36 5.9 ESE 13 15 7 8 1020.3 1020.0 0.0
03/06:30pm 12.2 7.4 -2.8 35 5.9 SE 13 15 7 8 1020.0 1019.7 0.0
03/06:00pm 14.3 9.5 -2.6 31 6.8 SE 13 15 7 8 1019.8 1019.5 0.0
03/05:30pm 17.2 12.0 -2.4 26 8.1 SE 15 17 8 9 1019.6 1019.3 0.0
03/05:00pm 19.8 13.9 -1.9 23 9.3 SE 19 22 10 12 1019.4 1019.1 0.0
03/04:30pm 20.5 14.6 -1.9 22 9.7 SE 19 26 10 14 1019.1 1018.8 0.0
03/04:00pm 20.8 14.8 -1.7 22 9.8 SE 20 26 11 14 1018.9 1018.6 0.0
03/03:30pm 20.7 14.8 -2.4 21 9.9 ESE 19 28 10 15 1018.7 1018.3 0.0
03/03:00pm 21.2 16.3 -0.7 23 9.7 SE 15 22 8 12 1018.7 1018.3 0.0
03/02:30pm 20.6 15.7 -0.7 24 9.4 SE 15 26 8 14 1019.0 1018.7 0.0
03/02:00pm 19.8 14.0 -0.2 26 8.9 SE 20 30 11 16 1019.3 1019.0 0.0
03/01:30pm 20.0 15.2 0.5 27 8.8 SE 15 22 8 12 1019.8 1019.5 0.0
03/01:00pm 19.8 14.0 -0.2 26 8.9 SE 20 28 11 15 1020.3 1020.0 0.0
03/12:30pm 18.8 12.3 0.4 29 8.2 SE 24 35 13 19 1020.9 1020.6 0.0
03/12:00pm 17.7 11.2 0.4 31 7.6 SE 24 32 13 17 1021.4 1021.0 0.0
03/11:30am 16.7 10.3 1.2 35 6.9 SE 24 30 13 16 1021.9 1021.5 0.0
03/11:00am 15.6 10.0 3.7 45 5.5 SSE 22 35 12 19 1022.4 1022.0 0.0
03/10:30am 14.9 8.7 4.3 49 5.0 SE 26 33 14 18 1022.9 1022.6 0.0
03/10:00am 13.6 7.4 4.5 54 4.2 SE 26 37 14 20 1023.1 1022.8 0.0
03/09:30am 13.4 7.0 5.3 58 3.8 SE 28 33 15 18 1023.3 1023.0 0.0
03/09:00am 12.2 6.5 5.1 62 3.3 ESE 24 33 13 18 1023.3 1023.0 0.0
03/08:30am 11.8 6.6 5.4 65 3.0 ESE 22 30 12 16 1023.0 1022.7 0.0
03/08:00am 11.1 6.9 5.6 69 2.6 ESE 17 22 9 12 1022.8 1022.5 0.0
03/07:30am 9.6 6.5 5.6 76 1.8 ESE 11 15 6 8 1022.5 1022.1 0.0
03/07:00am 8.0 4.4 4.9 81 1.4 ESE 13 15 7 8 1022.0 1021.6 0.0
03/06:30am 8.7 4.7 4.9 77 1.7 ESE 15 17 8 9 1021.5 1021.1 0.0
03/06:00am 9.9 5.0 5.3 73 2.1 SE 20 24 11 13 1021.0 1020.7 0.0
03/05:30am 10.7 5.5 5.5 70 2.4 SE 22 26 12 14 1020.8 1020.5 0.0
03/05:00am 11.2 6.4 5.5 68 2.7 SE 20 30 11 16 1020.8 1020.5 0.0
03/04:30am 11.4 6.6 5.5 67 2.8 SE 20 30 11 16 1020.6 1020.3 0.0
03/04:00am 12.3 7.2 5.9 65 3.0 SE 22 28 12 15 1020.4 1020.1 0.0
03/03:30am 12.7 7.6 5.8 63 3.3 SE 22 30 12 16 1020.2 1019.9 0.0
03/03:00am 13.2 8.2 6.3 63 3.3 SE 22 32 12 17 1020.2 1019.9 0.0
03/02:30am 13.0 8.5 6.8 66 3.0 SE 20 33 11 18 1020.3 1020.0 0.0
03/02:00am 11.3 8.0 6.2 71 2.4 ESE 13 17 7 9 1020.4 1020.1 0.0
03/01:30am 10.5 7.1 5.7 72 2.2 SE 13 15 7 8 1020.7 1020.4 0.0
03/01:00am 12.2 8.9 6.3 67 2.8 ESE 13 15 7 8 1020.8 1020.5 0.0
03/12:30am 12.8 9.5 6.4 65 3.1 ESE 13 15 7 8 1020.8 1020.5 0.0
03/12:00am 13.8 10.1 6.4 61 3.6 SE 15 17 8 9 1020.9 1020.6 0.0
 
Date/Time
EST
Temp
°C
App
Temp
°C
Dew
Point
Rel
Hum
%
Delta-T
°C
Wind Press
QNH
hPa
Press
MSL
hPa
Rain
since 9 am
mm
Dir
 
Spd
km/h
Gust
km/h
Spd
kts
Gust
kts
02/11:30pm 15.4 11.0 6.7 56 4.3 SE 19 22 10 12 1021.2 1020.9 0.0
02/11:00pm 15.4 11.1 6.9 57 4.2 SE 19 20 10 11 1021.4 1021.0 0.0
02/10:30pm 12.8 11.4 5.7 62 3.4 SE 2 9 1 5 1021.2 1020.9 0.0
02/10:00pm 12.5 11.4 5.2 61 3.4 CALM 0 0 0 0 1020.9 1020.6 0.0
02/09:30pm 12.8 11.0 5.2 60 3.6 WNW 4 7 2 4 1020.8 1020.5 0.0
02/09:00pm 14.7 12.0 5.5 54 4.4 SSE 9 13 5 7 1020.6 1020.3 0.0
02/08:30pm 15.1 11.2 5.3 52 4.7 SSE 15 15 8 8 1020.6 1020.3 0.0
02/08:00pm 17.1 13.4 6.3 49 5.3 SSE 15 17 8 9 1020.4 1020.1 0.0
02/07:30pm 17.7 14.0 6.3 47 5.7 SSE 15 17 8 9 1020.3 1020.0 0.0
02/07:00pm 18.4 15.5 6.3 45 6.0 SSE 11 13 6 7 1019.8 1019.5 0.0
02/06:30pm 19.4 17.1 5.5 40 6.9 SSE 7 11 4 6 1019.6 1019.3 0.0
02/06:00pm 20.1 17.6 4.6 36 7.6 SSW 7 9 4 5 1019.3 1019.0 0.0
02/05:30pm 22.9 20.0 4.9 31 9.0 SSW 9 17 5 9 1018.9 1018.6 0.0
02/05:00pm 24.6 21.7 4.9 28 10.0 SSW 9 17 5 9 1018.7 1018.3 0.0
02/04:30pm 25.2 21.6 4.9 27 10.3 SSW 13 20 7 11 1018.5 1018.1 0.0
02/04:00pm 25.4 21.4 5.1 27 10.4 SW 15 20 8 11 1018.4 1018.0 0.0
02/03:30pm 25.8 22.5 4.3 25 10.9 SSE 11 17 6 9 1018.4 1018.0 0.0
02/03:00pm 25.3 21.8 5.5 28 10.2 S 13 22 7 12 1018.5 1018.1 0.0
02/02:30pm 25.1 22.3 6.8 31 9.6 S 11 19 6 10 1018.8 1018.4 0.0
02/02:00pm 25.4 21.4 6.6 30 9.9 SSW 17 26 9 14 1019.2 1018.9 0.0
02/01:30pm 24.3 21.4 8.3 36 8.6 SE 13 24 7 13 1019.5 1019.2 0.0
02/01:00pm 23.9 20.9 9.1 39 8.1 S 15 28 8 15 1020.2 1019.9 0.0
02/12:30pm 23.0 20.3 9.0 41 7.6 SSE 13 20 7 11 1020.8 1020.5 0.0
02/12:00pm 21.8 18.8 9.3 45 6.7 SSE 15 22 8 12 1021.6 1021.2 0.0
02/11:30am 21.3 18.0 9.5 47 6.4 SSE 17 24 9 13 1022.2 1021.8 0.0
02/11:00am 20.7 17.4 9.6 49 6.0 SE 17 22 9 12 1022.7 1022.4 0.0
02/10:30am 20.1 16.5 9.9 52 5.5 SE 19 26 10 14 1023.4 1023.1 0.0
02/10:00am 18.7 14.4 9.5 55 4.9 ESE 22 28 12 15 1023.7 1023.4 0.0
02/09:30am 18.3 14.1 9.6 57 4.6 SE 22 28 12 15 1024.1 1023.8 0.0
02/09:00am 17.3 12.7 9.5 60 4.1 SE 24 30 13 16 1024.1 1023.8 0.0
02/08:30am 16.5 12.3 9.7 64 3.6 SE 22 28 12 15 1023.9 1023.6 0.0
02/08:00am 14.8 12.7 9.6 71 2.7 ESE 11 15 6 8 1023.9 1023.6 0.0
02/07:30am 13.3 12.0 9.9 80 1.8 ESE 7 9 4 5 1023.6 1023.3 0.0
02/07:00am 11.7 10.0 8.4 80 1.6 ESE 7 9 4 5 1023.3 1023.0 0.0
02/06:30am 12.4 9.7 8.9 79 1.8 SE 13 17 7 9 1022.7 1022.4 0.0
02/06:00am 13.1 9.7 9.0 76 2.1 SE 17 22 9 12 1022.2 1021.8 0.0
02/05:30am 13.7 10.0 9.6 76 2.1 SE 19 22 10 12 1021.9 1021.5 0.0
02/05:00am 14.2 10.6 9.8 75 2.3 SE 19 24 10 13 1021.7 1021.3 0.0
02/04:30am 14.3 11.4 9.5 73 2.5 SE 15 20 8 11 1021.8 1021.4 0.0
02/04:00am 15.1 11.3 9.7 70 2.8 SSE 20 24 11 13 1021.8 1021.4 0.0
02/03:30am 15.2 11.4 9.8 70 2.8 SSE 20 24 11 13 1021.9 1021.5 0.0
02/03:00am 15.5 11.6 9.4 67 3.2 SE 20 26 11 14 1021.8 1021.4 0.0
02/02:30am 15.9 12.0 9.6 66 3.3 SE 20 26 11 14 1021.7 1021.3 0.0
02/02:00am 15.6 11.7 9.5 67 3.2 SE 20 24 11 13 1021.9 1021.5 0.0
02/01:30am 14.6 11.5 8.8 68 3.0 SE 15 19 8 10 1022.0 1021.6 0.0
02/01:00am 13.8 10.3 8.8 72 2.5 SE 17 20 9 11 1022.0 1021.6 0.0
02/12:30am 12.7 10.8 7.4 70 2.6 ESE 7 9 4 5 1022.0 1021.6 0.0
02/12:00am 13.6 11.7 7.6 67 3.0 S 7 9 4 5 1022.2 1021.8 0.0
 
Date/Time
EST
Temp
°C
App
Temp
°C
Dew
Point
Rel
Hum
%
Delta-T
°C
Wind Press
QNH
hPa
Press
MSL
hPa
Rain
since 9 am
mm
Dir
 
Spd
km/h
Gust
km/h
Spd
kts
Gust
kts
01/11:30pm 14.6 12.8 8.1 65 3.3 SSE 7 9 4 5 1022.5 1022.1 0.0
01/11:00pm 15.4 13.3 8.2 62 3.7 SSE 9 13 5 7 1022.7 1022.4 0.0
01/10:30pm 15.6 15.2 8.4 62 3.7 CALM 0 6 0 3 1022.8 1022.5 0.0
01/10:00pm 16.2 13.9 7.4 56 4.4 S 9 11 5 6 1022.6 1022.3 0.0
01/09:30pm 17.1 14.2 8.3 56 4.5 SSE 13 15 7 8 1022.6 1022.3 0.0
01/09:00pm 18.7 15.6 8.9 53 5.2 SSE 15 15 8 8 1022.4 1022.0 0.0
01/08:30pm 18.9 15.7 8.6 51 5.4 S 15 15 8 8 1022.2 1021.8 0.0
01/08:00pm 20.0 16.9 9.0 49 5.8 S 15 17 8 9 1022.0 1021.6 0.0
01/07:30pm 20.4 17.8 9.3 49 6.0 S 13 15 7 8 1021.8 1021.4 0.0
01/07:00pm 19.4 16.7 9.0 51 5.5 SE 13 15 7 8 1021.4 1021.0 0.0
01/06:30pm 19.2 16.2 7.9 48 5.9 SE 13 15 7 8 1020.9 1020.6 0.0
01/06:00pm 21.8 18.9 8.3 42 7.2 ESE 13 15 7 8 1020.7 1020.4 0.0
01/05:30pm 22.3 19.3 7.7 39 7.7 SE 13 20 7 11 1020.5 1020.2 0.0

Other Formats:

Comma delimited format used in spreadsheet applications
http://www.bom.gov.au/fwo/IDQ60801/IDQ60801.94397.axf

JavaScript Object Notation format (JSON) in row-major order
http://www.bom.gov.au/fwo/IDQ60801/IDQ60801.94397.json